Time;durP1;ratioP1;P1;durP2;ratioP2;P2;SDS_P1;SDS_P2;PMS_P1;PMS_P2;Temp;Humidity;BMP_temperature;BMP_pressure;BME280_temperature;BME280_humidity;BME280_pressure;Samples;Min_cycle;Max_cycle;Signal;HPM_P1;HPM_P2
2021/04/24 00:01:08;;;;;;;8.63;4.15;;;;;;;6.24;52.37;100523.75;4285510;33;34116;-86
2021/04/24 00:03:41;;;;;;;9.95;3.80;;;;;;;6.03;51.99;100519.34;4275511;33;35546;-85
2021/04/24 00:06:14;;;;;;;7.25;3.78;;;;;;;6.30;51.33;100531.25;4286747;33;33724;-87
2021/04/24 00:08:46;;;;;;;7.12;4.00;;;;;;;6.24;51.92;100527.28;4287221;33;33371;-86
2021/04/24 00:11:19;;;;;;;8.35;3.92;;;;;;;6.49;50.73;100525.88;4285808;33;34192;-89
2021/04/24 00:13:53;;;;;;;6.25;3.80;;;;;;;6.37;52.38;100519.78;4273424;33;35537;-87
2021/04/24 00:16:25;;;;;;;9.35;3.90;;;;;;;6.44;52.42;100528.16;4275017;33;34769;-89
2021/04/24 00:18:59;;;;;;;7.00;4.10;;;;;;;6.49;52.26;100531.25;4286419;33;33761;-89
2021/04/24 00:21:31;;;;;;;7.25;3.45;;;;;;;6.45;52.72;100529.88;4286934;33;33891;-91
2021/04/24 00:24:05;;;;;;;8.10;4.75;;;;;;;6.81;52.42;100524.75;4285181;33;35723;-88
2021/04/24 00:26:37;;;;;;;8.75;4.75;;;;;;;6.76;52.37;100535.06;4275466;33;34905;-89
2021/04/24 00:29:10;;;;;;;11.10;4.70;;;;;;;6.78;51.47;100530.41;4286465;33;34413;-89
2021/04/24 00:31:42;;;;;;;8.95;4.70;;;;;;;6.51;53.23;100528.41;4286009;33;32967;-90
2021/04/24 00:34:14;;;;;;;13.07;6.35;;;;;;;6.73;53.06;100529.97;4286054;33;33631;-89
2021/04/24 00:36:47;;;;;;;10.52;5.22;;;;;;;6.47;54.01;100525.19;4286854;33;33757;-88
2021/04/24 00:39:20;;;;;;;11.00;5.50;;;;;;;6.56;53.90;100528.00;4297903;33;34127;-86
2021/04/24 00:41:52;;;;;;;12.50;5.50;;;;;;;6.88;52.90;100533.06;4286822;33;33054;-88
2021/04/24 00:44:25;;;;;;;8.90;5.12;;;;;;;6.70;53.57;100527.56;4286555;33;33775;-89
2021/04/24 00:47:03;;;;;;;13.70;5.28;;;;;;;6.70;53.76;100524.87;4299404;33;34588;-85
2021/04/24 00:49:35;;;;;;;10.98;4.85;;;;;;;6.82;53.32;100531.78;4277586;33;33353;-89
2021/04/24 00:52:07;;;;;;;7.40;4.72;;;;;;;6.35;54.46;100542.44;4277158;33;35856;-85
2021/04/24 00:54:40;;;;;;;7.32;4.65;;;;;;;6.45;54.16;100529.88;4288808;33;33626;-88
2021/04/24 00:57:13;;;;;;;11.57;4.62;;;;;;;6.39;54.18;100530.41;4289232;33;35837;-86
2021/04/24 00:59:47;;;;;;;11.75;5.22;;;;;;;6.29;54.93;100540.31;4288548;33;35760;-89
2021/04/24 01:02:19;;;;;;;9.65;4.55;;;;;;;5.99;55.69;100542.94;4288775;33;33954;-86
2021/04/24 01:05:11;;;;;;;8.88;4.80;;;;;;;6.05;55.58;100541.53;4277603;33;34418;-88
2021/04/24 01:07:45;;;;;;;10.48;4.55;;;;;;;6.09;53.71;100539.41;4288847;33;34095;-86
2021/04/24 01:10:19;;;;;;;9.40;4.65;;;;;;;6.26;53.99;100548.66;4275168;33;34679;-85
2021/04/24 01:12:52;;;;;;;8.35;3.97;;;;;;;5.89;54.76;100550.09;4277234;33;37826;-89
2021/04/24 01:15:25;;;;;;;7.30;4.18;;;;;;;5.74;55.56;100546.94;4277359;33;35485;-89
2021/04/24 01:17:57;;;;;;;9.20;4.72;;;;;;;6.08;54.91;100554.69;4288280;33;33484;-86
2021/04/24 01:20:31;;;;;;;7.80;4.85;;;;;;;5.75;55.67;100540.59;4287727;33;34198;-85
2021/04/24 01:23:05;;;;;;;6.55;4.50;;;;;;;5.84;55.70;100547.81;4289933;33;32735;-89
2021/04/24 01:25:39;;;;;;;9.98;4.45;;;;;;;5.96;55.83;100540.50;4288104;33;34376;-89
2021/04/24 01:28:12;;;;;;;12.37;5.10;;;;;;;5.76;56.23;100545.00;4277184;33;34779;-89
2021/04/24 01:30:45;;;;;;;7.75;4.37;;;;;;;5.81;55.77;100547.25;4300398;33;35350;-88
2021/04/24 01:33:18;;;;;;;9.77;4.47;;;;;;;5.55;56.92;100541.50;4289691;33;33297;-86
2021/04/24 01:35:50;;;;;;;9.48;4.60;;;;;;;5.36;57.83;100539.59;4288771;33;33636;-86
2021/04/24 01:38:22;;;;;;;8.82;4.93;;;;;;;5.19;58.40;100546.44;4273074;33;35198;-89
2021/04/24 01:40:56;;;;;;;7.65;4.53;;;;;;;5.01;59.14;100538.16;4274126;33;33637;-87
2021/04/24 01:43:31;;;;;;;11.30;4.70;;;;;;;5.59;55.72;100546.47;4275469;33;33118;-86
2021/04/24 01:46:04;;;;;;;8.98;4.28;;;;;;;5.72;55.71;100538.19;4273881;33;35069;-89
2021/04/24 01:48:37;;;;;;;6.50;3.97;;;;;;;5.93;55.06;100545.31;4273874;33;35290;-89
2021/04/24 01:51:10;;;;;;;7.82;4.37;;;;;;;5.64;56.81;100541.56;4284578;33;33118;-89
2021/04/24 01:53:42;;;;;;;9.45;4.53;;;;;;;5.57;56.80;100542.22;4284869;33;33980;-87
2021/04/24 01:56:15;;;;;;;8.65;4.75;;;;;;;5.10;58.60;100542.72;4273669;33;33657;-88
2021/04/24 01:58:47;;;;;;;9.50;5.07;;;;;;;5.40;57.53;100544.53;4279196;33;34195;-89
2021/04/24 02:01:25;;;;;;;8.95;4.93;;;;;;;5.50;57.61;100546.44;4287856;33;36142;-89
2021/04/24 02:03:58;;;;;;;10.60;4.97;;;;;;;5.23;57.78;100537.97;4288283;33;34647;-86
2021/04/24 02:06:30;;;;;;;11.57;4.70;;;;;;;5.18;57.45;100545.59;4276880;33;35616;-85
2021/04/24 02:09:09;;;;;;;9.70;4.75;;;;;;;5.13;57.75;100554.03;4288534;33;33623;-85
2021/04/24 02:12:10;;;;;;;10.25;4.37;;;;;;;5.37;56.90;100550.19;4298914;33;34505;-86
2021/04/24 02:14:48;;;;;;;7.87;4.03;;;;;;;5.47;57.03;100553.75;4276621;33;34750;-86
2021/04/24 02:17:23;;;;;;;8.38;4.20;;;;;;;5.43;56.68;100559.53;4288423;33;33634;-88
2021/04/24 02:19:55;;;;;;;7.65;4.87;;;;;;;5.52;56.57;100556.03;4288215;33;35227;-85
2021/04/24 02:22:28;;;;;;;8.32;5.07;;;;;;;5.61;56.60;100549.00;4289142;33;35270;-89
2021/04/24 02:25:04;;;;;;;11.57;5.37;;;;;;;5.32;56.86;100541.69;4276868;33;34254;-88
2021/04/24 02:27:36;;;;;;;9.13;4.53;;;;;;;5.25;56.62;100545.87;4288494;33;34195;-89
2021/04/24 02:30:16;;;;;;;8.38;4.12;;;;;;;4.55;58.71;100551.78;4276934;33;35061;-90
2021/04/24 02:32:49;;;;;;;8.23;4.93;;;;;;;5.02;57.58;100553.25;4288464;33;34440;-85
2021/04/24 02:35:36;;;;;;;10.00;4.20;;;;;;;5.17;57.19;100553.75;4299961;33;33252;-85
2021/04/24 02:38:10;;;;;;;6.30;4.28;;;;;;;5.40;56.39;100554.44;4276397;33;34850;-85
2021/04/24 02:40:42;;;;;;;10.98;4.65;;;;;;;5.47;56.13;100550.22;4288130;33;35762;-84
2021/04/24 02:43:16;;;;;;;11.15;5.40;;;;;;;5.24;56.49;100550.41;4288402;33;33627;-85
2021/04/24 02:45:48;;;;;;;8.93;5.53;;;;;;;5.07;56.57;100548.34;4287935;33;36157;-89
2021/04/24 02:48:21;;;;;;;9.07;4.30;;;;;;;5.05;56.46;100542.25;4288564;33;33629;-90
2021/04/24 02:50:53;;;;;;;7.30;4.65;;;;;;;5.06;56.66;100541.25;4287992;33;34518;-89
2021/04/24 02:53:26;;;;;;;11.82;5.43;;;;;;;4.78;57.43;100549.84;4276267;33;35279;-90
2021/04/24 02:55:58;;;;;;;10.27;4.68;;;;;;;4.92;56.70;100550.50;4288549;33;35235;-90
2021/04/24 02:58:34;;;;;;;9.13;4.85;;;;;;;4.83;56.77;100556.66;4276965;33;35370;-90
2021/04/24 03:01:06;;;;;;;13.60;4.90;;;;;;;4.97;56.92;100563.50;4276216;33;34846;-85
2021/04/24 03:03:39;;;;;;;8.32;5.78;;;;;;;5.17;56.62;100549.25;4288179;33;33541;-89
2021/04/24 03:06:11;;;;;;;13.13;4.93;;;;;;;5.28;56.51;100556.34;4280013;33;33872;-84
2021/04/24 03:08:43;;;;;;;10.45;5.65;;;;;;;5.29;56.25;100547.31;4272925;33;33544;-90
2021/04/24 03:11:15;;;;;;;12.10;5.82;;;;;;;5.05;56.46;100537.75;4273724;33;33823;-84
2021/04/24 03:13:48;;;;;;;9.38;4.90;;;;;;;4.38;58.58;100552.34;4273477;33;34594;-89
2021/04/24 03:16:20;;;;;;;9.23;5.28;;;;;;;4.42;58.41;100554.63;4273634;33;33673;-84
2021/04/24 03:18:55;;;;;;;10.15;5.25;;;;;;;4.82;57.08;100545.09;4273642;33;34324;-90
2021/04/24 03:21:28;;;;;;;10.48;4.78;;;;;;;4.81;57.01;100550.56;4284896;33;34981;-84
2021/04/24 03:24:00;;;;;;;8.35;5.07;;;;;;;4.65;57.97;100541.16;4262174;33;36500;-90
2021/04/24 03:26:33;;;;;;;15.63;5.05;;;;;;;4.84;57.16;100547.62;4285103;33;33415;-90
2021/04/24 03:29:07;;;;;;;9.38;5.40;;;;;;;4.93;56.55;100552.19;4273557;33;33614;-84
2021/04/24 03:31:39;;;;;;;9.75;5.00;;;;;;;4.76;57.06;100553.62;4262111;33;35590;-84
2021/04/24 03:34:12;;;;;;;9.43;5.43;;;;;;;4.65;56.88;100542.97;4262163;33;34315;-90
2021/04/24 03:36:44;;;;;;;11.57;4.20;;;;;;;4.54;57.32;100550.09;4262122;33;35903;-90
2021/04/24 03:39:16;;;;;;;12.35;5.85;;;;;;;4.19;58.64;100553.00;4273378;33;35009;-90
2021/04/24 03:41:48;;;;;;;9.50;5.55;;;;;;;4.33;58.58;100557.25;4273222;33;35404;-85
2021/04/24 03:44:21;;;;;;;6.93;3.85;;;;;;;4.20;58.81;100560.06;4273239;33;33943;-90
2021/04/24 03:46:53;;;;;;;7.45;4.47;;;;;;;4.95;57.43;100566.31;4273270;33;33338;-89
2021/04/24 03:49:26;;;;;;;10.70;4.65;;;;;;;4.97;57.09;100563.50;4284185;33;34323;-86
2021/04/24 03:51:58;;;;;;;9.25;5.22;;;;;;;5.04;56.65;100562.00;4250422;33;34738;-84
2021/04/24 03:54:31;;;;;;;11.93;5.03;;;;;;;4.61;58.05;100566.50;4274308;33;34712;-85
2021/04/24 03:57:03;;;;;;;9.50;4.57;;;;;;;4.76;57.79;100570.56;4284245;33;32965;-90
2021/04/24 03:59:35;;;;;;;8.25;4.85;;;;;;;4.69;58.31;100566.69;4281691;33;33616;-85
2021/04/24 04:02:07;;;;;;;10.15;5.30;;;;;;;4.82;58.02;100571.00;4287872;33;34494;-89
2021/04/24 04:04:40;;;;;;;11.43;5.55;;;;;;;4.78;57.89;100576.63;4290558;33;33908;-85
2021/04/24 04:07:13;;;;;;;9.55;5.60;;;;;;;4.51;59.09;100573.59;4290367;33;33336;-90
2021/04/24 04:09:45;;;;;;;11.07;5.32;;;;;;;4.83;58.01;100568.19;4290166;33;33927;-88
2021/04/24 04:12:17;;;;;;;16.30;5.95;;;;;;;4.57;58.93;100581.12;4277017;33;35052;-89
2021/04/24 04:14:50;;;;;;;11.93;5.35;;;;;;;4.68;59.29;100569.50;4301504;33;34215;-88
2021/04/24 04:17:22;;;;;;;9.05;5.10;;;;;;;4.54;59.69;100578.69;4289516;33;33886;-89
2021/04/24 04:19:54;;;;;;;15.25;5.78;;;;;;;4.90;58.74;100582.78;4279771;33;34332;-85
2021/04/24 04:22:26;;;;;;;10.38;5.53;;;;;;;5.01;58.32;100581.84;4292397;33;34789;-89
2021/04/24 04:24:59;;;;;;;12.32;4.95;;;;;;;4.97;58.61;100587.59;4291302;33;34467;-85
2021/04/24 04:27:31;;;;;;;15.07;6.10;;;;;;;5.18;58.51;100574.19;4291293;33;33661;-85
2021/04/24 04:30:09;;;;;;;12.07;5.28;;;;;;;4.95;58.85;100582.38;4291314;33;34612;-84
2021/04/24 04:32:41;;;;;;;12.20;5.60;;;;;;;4.99;58.57;100583.00;4291902;33;33984;-90
2021/04/24 04:35:16;;;;;;;9.35;5.10;;;;;;;5.20;57.22;100583.81;4291068;33;35076;-85
2021/04/24 04:37:48;;;;;;;16.87;5.57;;;;;;;5.07;58.66;100581.31;4303053;33;33695;-85
2021/04/24 04:40:22;;;;;;;15.15;6.10;;;;;;;5.20;57.03;100577.62;4291855;33;33588;-89
2021/04/24 04:42:54;;;;;;;12.93;5.82;;;;;;;5.41;57.55;100578.41;4303218;33;33652;-89
2021/04/24 04:45:28;;;;;;;11.20;6.37;;;;;;;5.46;56.59;100578.88;4279591;33;34712;-85
2021/04/24 04:48:01;;;;;;;11.68;6.68;;;;;;;5.50;56.71;100579.47;4290820;33;34893;-87
2021/04/24 04:50:35;;;;;;;13.20;6.15;;;;;;;5.71;56.34;100578.56;4278741;33;34375;-86
2021/04/24 04:53:08;;;;;;;9.88;5.15;;;;;;;5.84;55.83;100581.84;4276892;33;35472;-90
2021/04/24 04:55:40;;;;;;;11.18;5.68;;;;;;;6.15;55.57;100582.69;4290283;33;33705;-89
2021/04/24 04:58:13;;;;;;;12.25;5.65;;;;;;;6.09;54.93;100579.69;4290437;33;33224;-90
2021/04/24 05:00:47;;;;;;;11.45;6.07;;;;;;;6.27;54.79;100585.22;4299301;33;34663;-92
2021/04/24 05:03:19;;;;;;;10.93;5.60;;;;;;;5.89;56.51;100581.44;4288851;33;34724;-90
2021/04/24 05:05:52;;;;;;;13.02;6.35;;;;;;;6.36;54.21;100579.00;4301535;33;33368;-93
2021/04/24 05:08:25;;;;;;;13.10;6.28;;;;;;;6.79;53.51;100574.22;4287924;33;34134;-86
2021/04/24 05:10:58;;;;;;;13.52;6.57;;;;;;;6.93;53.33;100581.00;4301462;33;33758;-86
2021/04/24 05:13:30;;;;;;;17.35;6.32;;;;;;;7.21;52.51;100585.47;4290581;33;34702;-93
2021/04/24 05:16:06;;;;;;;12.48;6.07;;;;;;;7.02;51.69;100586.37;4276941;33;34406;-91
2021/04/24 05:18:46;;;;;;;9.80;5.43;;;;;;;7.20;51.42;100578.41;4295452;33;33672;-91
2021/04/24 05:21:19;;;;;;;9.93;5.68;;;;;;;7.23;50.90;100583.50;4293875;33;34626;-92
2021/04/24 05:23:52;;;;;;;8.43;5.40;;;;;;;7.62;50.45;100578.97;4289283;33;35275;-92
2021/04/24 05:26:50;;;;;;;11.55;5.60;;;;;;;7.75;49.26;100590.25;4276910;33;37064;-91
2021/04/24 05:29:22;;;;;;;9.43;5.37;;;;;;;7.67;50.22;100584.78;4301919;33;33347;-87
2021/04/24 05:31:55;;;;;;;11.07;5.50;;;;;;;7.84;49.38;100581.28;4290520;33;34205;-87
2021/04/24 05:34:28;;;;;;;12.82;5.97;;;;;;;7.71;48.83;100580.78;4290390;33;36032;-90
2021/04/24 05:37:01;;;;;;;9.25;5.00;;;;;;;7.66;49.74;100581.22;4277103;33;34035;-93
2021/04/24 05:39:34;;;;;;;12.10;7.30;;;;;;;7.62;49.32;100576.28;4289573;33;33150;-90
2021/04/24 05:42:10;;;;;;;8.43;5.43;;;;;;;8.10;47.93;100577.91;4301003;33;33389;-90
2021/04/24 05:44:43;;;;;;;8.57;5.10;;;;;;;8.03;47.43;100574.94;4290194;33;35937;-90
2021/04/24 05:47:16;;;;;;;10.93;5.43;;;;;;;8.41;47.11;100578.41;4300825;33;33740;-92
2021/04/24 05:49:50;;;;;;;13.23;5.47;;;;;;;8.25;49.11;100584.47;4302451;33;33085;-91
2021/04/24 05:52:23;;;;;;;8.23;5.07;;;;;;;8.53;49.99;100583.59;4290533;33;33638;-91
2021/04/24 05:54:56;;;;;;;10.48;5.62;;;;;;;8.97;47.01;100573.69;4290519;33;33771;-90
2021/04/24 05:57:29;;;;;;;9.00;4.53;;;;;;;9.07;46.39;100578.16;4290384;33;36098;-90
2021/04/24 06:00:04;;;;;;;10.95;5.18;;;;;;;9.53;44.49;100573.38;4276320;33;34083;-91
2021/04/24 06:02:37;;;;;;;10.38;5.28;;;;;;;9.15;47.97;100575.53;4287527;33;33638;-92
2021/04/24 06:05:11;;;;;;;9.50;5.60;;;;;;;9.63;44.40;100573.28;4276937;33;33405;-90
2021/04/24 06:07:45;;;;;;;8.60;4.70;;;;;;;9.47;46.24;100577.56;4288295;33;33484;-90
2021/04/24 06:10:18;;;;;;;12.57;5.50;;;;;;;9.84;44.79;100580.97;4288287;33;33302;-90
2021/04/24 06:12:53;;;;;;;9.18;4.55;;;;;;;9.87;42.58;100581.47;4288222;33;33373;-92
2021/04/24 06:15:26;;;;;;;11.50;4.53;;;;;;;9.83;44.60;100581.97;4288527;33;33798;-94
2021/04/24 06:18:16;;;;;;;5.53;3.92;;;;;;;9.88;43.92;100587.75;4287066;33;33963;-94
2021/04/24 06:20:49;;;;;;;6.40;4.10;;;;;;;10.03;43.13;100583.41;4288080;33;32490;-90
2021/04/24 06:23:21;;;;;;;11.57;4.82;;;;;;;10.62;40.04;100589.84;4288205;33;34434;-90
2021/04/24 06:25:54;;;;;;;8.32;4.18;;;;;;;10.34;42.72;100579.28;4288777;33;32594;-93
2021/04/24 06:28:33;;;;;;;10.70;4.25;;;;;;;10.55;41.34;100584.22;4287996;33;33558;-95
2021/04/24 06:31:09;;;;;;;6.87;3.90;;;;;;;10.74;42.29;100583.06;4289012;33;34932;-93
2021/04/24 06:33:42;;;;;;;7.60;4.22;;;;;;;10.80;41.70;100586.97;4299716;33;33608;-92
2021/04/24 06:36:19;;;;;;;9.90;3.95;;;;;;;11.22;40.90;100575.13;4286231;33;33755;-88
2021/04/24 06:38:55;;;;;;;8.15;3.95;;;;;;;11.52;38.45;100586.22;4288993;33;34577;-92
2021/04/24 06:41:28;;;;;;;12.55;3.87;;;;;;;11.01;37.72;100586.47;4287540;33;33385;-96
2021/04/24 06:44:11;;;;;;;10.60;4.00;;;;;;;10.75;39.62;100582.06;4260510;33;34182;-93
2021/04/24 06:46:44;;;;;;;8.68;4.20;;;;;;;11.41;37.69;100577.44;4261445;33;33136;-92
2021/04/24 06:49:21;;;;;;;6.32;3.80;;;;;;;11.61;38.68;100574.34;4273564;33;34259;-92
2021/04/24 06:51:55;;;;;;;10.95;4.25;;;;;;;12.02;37.02;100571.53;4271871;33;33830;-92
2021/04/24 06:54:30;;;;;;;9.95;3.55;;;;;;;11.98;36.38;100575.59;4264350;33;35266;-92
2021/04/24 06:57:02;;;;;;;7.32;3.83;;;;;;;12.14;35.92;100569.22;4260173;33;34881;-90
2021/04/24 06:59:36;;;;;;;7.35;3.90;;;;;;;12.45;37.45;100574.62;4260192;33;35379;-92
2021/04/24 07:02:10;;;;;;;7.72;3.67;;;;;;;12.67;35.26;100574.84;4261520;33;33922;-92
2021/04/24 07:04:46;;;;;;;8.77;4.70;;;;;;;12.70;35.83;100579.91;4274758;33;34641;-96
2021/04/24 07:08:03;;;;;;;8.40;3.67;;;;;;;11.96;36.47;100567.66;4273093;33;34702;-92
2021/04/24 07:13:37;;;;;;;8.43;3.83;;;;;;;12.93;35.57;100563.59;4284664;33;33740;-94
2021/04/24 07:16:20;;;;;;;7.28;3.83;;;;;;;12.88;34.83;100555.19;4263497;33;34534;-95
2021/04/24 07:18:55;;;;;;;6.53;4.18;;;;;;;12.32;35.93;100560.81;4272082;33;33833;-88
2021/04/24 07:21:34;;;;;;;7.28;4.30;;;;;;;13.03;35.15;100564.19;4270626;33;34405;-92
2021/04/24 07:24:07;;;;;;;7.32;3.65;;;;;;;12.78;35.74;100560.00;4272715;33;33596;-93
2021/04/24 07:26:47;;;;;;;8.13;3.75;;;;;;;12.67;34.29;100556.69;4271196;33;33760;-94
2021/04/24 07:29:21;;;;;;;11.45;4.50;;;;;;;13.17;33.36;100554.41;4261416;33;32929;-95
2021/04/24 07:31:55;;;;;;;10.55;4.18;;;;;;;13.23;36.83;100553.66;4272143;33;33807;-92
2021/04/24 07:34:27;;;;;;;6.93;3.58;;;;;;;12.76;34.75;100562.06;4271961;33;32918;-86
2021/04/24 07:37:02;;;;;;;8.13;4.20;;;;;;;12.79;34.34;100559.00;4272115;33;33758;-93
2021/04/24 07:39:35;;;;;;;9.65;4.25;;;;;;;12.69;33.84;100560.09;4271732;33;33541;-93
2021/04/24 07:42:08;;;;;;;7.68;4.22;;;;;;;12.51;33.54;100565.81;4271636;33;34591;-92
2021/04/24 07:44:41;;;;;;;8.85;3.15;;;;;;;13.25;35.83;100561.63;4259019;33;34554;-90
2021/04/24 07:47:14;;;;;;;10.65;3.97;;;;;;;13.86;32.67;100556.06;4283822;33;33771;-94
2021/04/24 07:49:52;;;;;;;6.05;3.87;;;;;;;13.94;33.35;100555.94;4272944;33;34532;-94
2021/04/24 07:52:43;;;;;;;5.47;3.40;;;;;;;14.37;31.90;100548.87;4273681;33;36870;-94
2021/04/24 07:55:18;;;;;;;6.15;3.10;;;;;;;14.54;30.74;100550.34;4273921;33;34724;-93
2021/04/24 07:57:59;;;;;;;7.40;3.45;;;;;;;15.00;30.66;100549.94;4271037;33;35051;-94
2021/04/24 08:00:37;;;;;;;7.93;3.92;;;;;;;15.11;30.13;100547.72;4294898;33;33713;-94
2021/04/24 08:03:13;;;;;;;10.32;3.97;;;;;;;14.98;30.09;100553.91;4254579;33;34934;-94
2021/04/24 08:06:00;;;;;;;6.03;3.65;;;;;;;15.50;29.12;100547.16;4283092;33;33582;-95
2021/04/24 08:09:33;;;;;;;14.45;3.45;;;;;;;15.98;30.52;100549.09;4245237;33;34655;-94
2021/04/24 08:12:31;;;;;;;11.43;4.25;;;;;;;15.91;30.41;100548.22;4306997;33;34889;-93
2021/04/24 08:15:26;;;;;;;6.90;3.60;;;;;;;16.12;29.62;100547.25;4309237;33;34014;-94
2021/04/24 08:18:25;;;;;;;6.65;3.53;;;;;;;16.54;28.29;100544.44;4290110;33;33708;-93
2021/04/24 08:21:06;;;;;;;6.62;3.65;;;;;;;17.19;27.30;100546.63;4298337;33;33914;-94
2021/04/24 08:23:40;;;;;;;6.78;3.67;;;;;;;16.68;26.09;100546.16;4288250;33;33014;-94
2021/04/24 08:26:22;;;;;;;12.15;3.80;;;;;;;16.46;27.10;100544.63;4251193;33;32712;-93
2021/04/24 08:28:57;;;;;;;7.20;3.37;;;;;;;16.76;28.27;100545.09;4249912;33;34143;-93
2021/04/24 08:31:42;;;;;;;7.40;3.70;;;;;;;16.85;27.93;100551.19;4250079;33;34085;-94
2021/04/24 08:34:25;;;;;;;6.03;3.33;;;;;;;16.58;31.02;100549.25;4249255;33;35620;-93
2021/04/24 08:37:03;;;;;;;6.15;3.60;;;;;;;16.70;28.37;100549.50;4250031;33;33872;-93
2021/04/24 08:39:38;;;;;;;6.47;3.08;;;;;;;17.63;25.61;100539.56;4238069;33;33564;-93
2021/04/24 08:42:14;;;;;;;10.05;4.20;;;;;;;17.10;26.38;100541.34;4247515;33;34286;-92
2021/04/24 08:44:51;;;;;;;9.02;3.87;;;;;;;17.11;26.35;100542.19;4250312;33;33366;-90
2021/04/24 08:47:27;;;;;;;5.55;2.78;;;;;;;17.02;30.04;100540.72;4261694;33;33824;-91
2021/04/24 08:50:06;;;;;;;9.57;3.60;;;;;;;17.49;27.03;100536.03;4247239;33;32428;-93
2021/04/24 08:52:52;;;;;;;6.37;3.72;;;;;;;17.34;28.09;100539.00;4243291;33;32574;-91
2021/04/24 08:55:40;;;;;;;5.62;3.55;;;;;;;17.52;30.10;100543.00;4263320;33;34369;-92
2021/04/24 08:58:44;;;;;;;9.23;4.10;;;;;;;17.62;28.86;100536.00;4283935;33;33419;-96
2021/04/24 09:01:26;;;;;;;5.90;3.95;;;;;;;18.15;27.01;100539.63;4269053;33;33474;-91
2021/04/24 09:04:00;;;;;;;7.25;3.92;;;;;;;18.10;28.03;100533.94;4283175;33;34428;-91
2021/04/24 09:06:48;;;;;;;7.35;4.12;;;;;;;18.34;27.25;100526.91;4266662;33;32984;-91
2021/04/24 09:09:31;;;;;;;10.63;4.15;;;;;;;18.28;25.48;100528.63;4281241;33;32971;-92
2021/04/24 09:12:07;;;;;;;6.68;3.75;;;;;;;18.55;26.63;100530.31;4279033;33;34233;-92
2021/04/24 09:15:21;;;;;;;5.65;3.60;;;;;;;18.33;25.49;100525.22;4293265;33;34466;-96
2021/04/24 09:18:05;;;;;;;6.55;3.47;;;;;;;18.82;22.96;100523.59;4290241;33;32262;-92
2021/04/24 09:21:07;;;;;;;6.03;3.87;;;;;;;19.17;22.82;100508.59;4289088;33;33491;-94
2021/04/24 09:23:49;;;;;;;6.82;4.05;;;;;;;19.17;24.89;100512.16;4289329;33;34732;-94
2021/04/24 09:26:55;;;;;;;9.35;4.35;;;;;;;18.52;24.30;100507.81;4261476;33;33667;-96
2021/04/24 09:30:57;;;;;;;8.13;4.05;;;;;;;18.88;25.35;100514.53;4265949;33;34672;-96
2021/04/24 09:34:18;;;;;;;7.60;3.33;;;;;;;19.47;24.22;100508.69;4304274;28;20608;-93
2021/04/24 09:37:07;;;;;;;8.73;3.65;;;;;;;19.54;24.83;100492.19;4264141;33;33858;-91
2021/04/24 09:39:48;;;;;;;7.82;3.90;;;;;;;19.60;25.66;100504.16;4239788;33;33369;-96
2021/04/24 09:42:46;;;;;;;8.23;4.18;;;;;;;19.52;23.42;100494.28;4239995;33;36631;-92
2021/04/24 09:45:55;;;;;;;9.43;3.75;;;;;;;19.31;21.65;100498.31;4261698;33;32855;-96
2021/04/24 09:49:32;;;;;;;17.10;4.75;;;;;;;20.52;22.68;100492.97;4244554;33;34803;-96
2021/04/24 09:52:32;;;;;;;8.55;5.03;;;;;;;20.05;23.29;100476.38;4254812;33;34856;-91
2021/04/24 09:55:46;;;;;;;9.40;4.70;;;;;;;20.25;22.55;100481.56;4267909;33;34721;-96
2021/04/24 09:59:04;;;;;;;5.75;3.65;;;;;;;19.79;24.47;100472.06;4232331;33;20130;-96
2021/04/24 10:02:08;;;;;;;12.55;5.12;;;;;;;20.51;22.15;100466.63;4237696;33;31676;-95
2021/04/24 10:05:29;;;;;;;8.93;4.90;;;;;;;20.31;22.72;100461.41;4263827;33;34229;-96
2021/04/24 10:08:39;;;;;;;8.23;4.30;;;;;;;20.83;22.19;100460.00;4243131;33;32408;-96
2021/04/24 10:12:21;;;;;;;8.32;4.70;;;;;;;20.64;21.90;100457.31;4220130;33;33203;-96
2021/04/24 10:15:48;;;;;;;6.85;4.30;;;;;;;21.05;23.27;100447.34;4233883;33;32242;-96
2021/04/24 10:18:55;;;;;;;10.80;4.93;;;;;;;21.02;21.85;100445.06;4231036;33;34369;-94
2021/04/24 10:22:03;;;;;;;10.40;5.12;;;;;;;21.64;22.44;100441.75;4228971;33;20522;-96
2021/04/24 10:25:25;;;;;;;7.90;4.35;;;;;;;20.75;23.35;100430.97;4267017;33;20493;-96
2021/04/24 10:28:29;;;;;;;10.90;4.30;;;;;;;20.96;22.65;100433.13;4270905;33;32560;-90
2021/04/24 10:31:32;;;;;;;6.78;4.40;;;;;;;21.73;25.52;100424.88;4259561;33;33064;-96
2021/04/24 10:34:38;;;;;;;10.23;4.60;;;;;;;22.02;22.71;100423.78;4244688;33;36038;-96
2021/04/24 10:37:35;;;;;;;9.07;4.00;;;;;;;22.88;19.86;100419.16;4235818;33;35150;-96
2021/04/24 10:40:48;;;;;;;6.95;3.12;;;;;;;23.47;18.16;100415.03;4231907;33;32565;-94
2021/04/24 10:43:28;;;;;;;10.35;4.05;;;;;;;23.26;18.42;100417.50;4243506;33;32809;-96
2021/04/24 10:46:49;;;;;;;8.25;3.85;;;;;;;20.79;19.00;100411.03;4245531;33;33616;-96
2021/04/24 10:53:31;;;;;;;6.85;3.50;;;;;;;20.04;26.33;100408.84;4182703;33;33108;-96
2021/04/24 10:56:09;;;;;;;6.45;3.85;;;;;;;21.02;19.54;100408.50;4252279;33;34164;-92
2021/04/24 10:59:18;;;;;;;7.28;3.70;;;;;;;20.93;19.67;100405.31;4256568;33;33642;-96
2021/04/24 11:02:11;;;;;;;5.70;2.80;;;;;;;20.87;19.49;100401.59;4261491;33;34052;-93
2021/04/24 11:05:18;;;;;;;8.70;2.33;;;;;;;19.90;20.16;100389.84;4259689;33;33614;-95
2021/04/24 11:08:12;;;;;;;4.85;3.08;;;;;;;20.46;19.50;100400.59;4247512;33;34589;-92
2021/04/24 11:11:25;;;;;;;5.43;2.00;;;;;;;19.77;18.97;100395.47;4268808;33;33356;-96
2021/04/24 11:14:26;;;;;;;6.05;2.80;;;;;;;20.15;19.98;100393.50;4256314;33;33967;-96
2021/04/24 11:17:27;;;;;;;4.28;2.30;;;;;;;21.22;18.40;100377.88;4261442;33;33075;-95
2021/04/24 11:20:05;;;;;;;4.85;2.65;;;;;;;21.10;16.95;100367.75;4266881;33;34606;-93
2021/04/24 11:23:04;;;;;;;7.07;2.47;;;;;;;22.24;20.52;100364.44;4260203;33;33976;-95
2021/04/24 11:26:24;;;;;;;6.82;2.15;;;;;;;22.38;17.04;100355.63;4135571;28;32342;-96
2021/04/24 11:29:35;;;;;;;4.07;2.25;;;;;;;22.94;17.76;100360.28;4228795;33;33700;-95
2021/04/24 11:32:27;;;;;;;5.15;2.05;;;;;;;23.12;17.03;100358.34;4244935;33;33502;-91
2021/04/24 11:35:12;;;;;;;6.15;1.75;;;;;;;22.95;17.07;100359.19;4244538;33;33699;-91
2021/04/24 11:37:58;;;;;;;6.47;2.15;;;;;;;23.38;16.62;100352.06;4255291;33;32915;-92
2021/04/24 11:40:34;;;;;;;4.32;2.20;;;;;;;23.59;14.41;100357.78;4244798;33;33372;-92
2021/04/24 11:43:09;;;;;;;2.25;1.45;;;;;;;23.26;18.95;100365.97;4233254;33;33658;-91
2021/04/24 11:45:57;;;;;;;6.35;2.50;;;;;;;23.79;15.63;100352.50;4236441;33;33934;-94
2021/04/24 11:48:49;;;;;;;3.05;1.58;;;;;;;24.22;15.64;100354.56;4228921;33;32812;-91
2021/04/24 11:51:33;;;;;;;4.28;1.73;;;;;;;22.94;15.79;100348.44;4233443;33;32469;-90
2021/04/24 11:54:43;;;;;;;4.00;1.92;;;;;;;22.98;16.76;100341.31;4235486;33;33610;-96
2021/04/24 11:57:29;;;;;;;6.03;2.08;;;;;;;23.08;16.04;100335.94;4238567;33;35209;-90
2021/04/24 12:00:10;;;;;;;9.77;2.50;;;;;;;23.42;20.66;100336.63;4240831;33;34921;-94
2021/04/24 12:03:39;;;;;;;7.47;2.35;;;;;;;23.49;15.32;100338.34;4240339;33;33844;-96
2021/04/24 12:06:13;;;;;;;6.35;2.20;;;;;;;22.52;16.54;100327.72;4241626;33;34171;-95
2021/04/24 12:08:50;;;;;;;6.32;2.55;;;;;;;22.38;16.91;100339.09;4210325;34;33060;-90
2021/04/24 12:11:33;;;;;;;3.67;1.95;;;;;;;22.44;17.64;100328.16;4203946;34;35219;-96
2021/04/24 12:14:28;;;;;;;5.37;2.20;;;;;;;23.09;16.67;100321.91;4217194;33;33499;-96
2021/04/24 12:17:34;;;;;;;4.55;2.55;;;;;;;22.99;17.04;100321.75;4214551;34;34150;-92
2021/04/24 12:20:32;;;;;;;3.85;2.53;;;;;;;23.76;15.90;100317.12;4226504;33;33683;-91
2021/04/24 12:23:14;;;;;;;5.60;1.98;;;;;;;23.76;15.71;100310.81;4226654;33;32355;-96
2021/04/24 12:25:59;;;;;;;5.37;2.75;;;;;;;24.74;15.79;100301.34;4215620;34;34357;-96
2021/04/24 12:28:48;;;;;;;5.82;3.15;;;;;;;25.22;17.95;100297.69;4242077;33;33478;-96
2021/04/24 12:31:29;;;;;;;5.68;2.67;;;;;;;25.35;17.96;100302.75;4218685;33;32893;-91
2021/04/24 12:38:07;;;;;;;4.93;3.03;;;;;;;26.29;16.71;100279.56;4220553;33;33134;-91
2021/04/24 12:41:13;;;;;;;9.52;3.25;;;;;;;25.87;17.03;100282.34;4218223;34;35733;-91
2021/04/24 12:43:53;;;;;;;6.60;3.42;;;;;;;25.63;14.05;100268.22;4197390;34;33897;-94